Ashland City, Tennessee
Current Conditions -  °F | °C
As of 4:53 AM on Friday 31 Oct 2014 (Local Time) from KBNA Reporting Station
Overcast Overcast  
Wind Chill: 51°   Ceiling: 7000
Heat Index: 51°   Visibility: 10mi
Dew Point: 43°   Wind: 3mph
Humidity: 74%   Direction: 290°WNW
Pressure: 29.99"   Gusts: NA
Location:  36.27°N, 87.06°W
Report Text: KBNA 310953Z 29003KT 10SM OVC070 11/06 A2999 RMK AO2 SLP154 T01060061
Loading
Personal Weather Stations






























Interactive Weather Map
Tropical Storm Tracking
New forecast layout! Learn more

10-Day Weather Forecast

Advertisements
Track Severe Weather on mobile